Time;durP1;ratioP1;P1;durP2;ratioP2;P2;SDS_P1;SDS_P2;PMS_P1;PMS_P2;Temp;Humidity;BMP_temperature;BMP_pressure;BME280_temperature;BME280_humidity;BME280_pressure;Samples;Min_cycle;Max_cycle;Signal;HPM_P1;HPM_P2
2024/01/07 00:01:35;;;;;;;0.90;0.90;;;3.90;99.90;;;;;;5050739;28;20060;-88
2024/01/07 00:04:01;;;;;;;0.90;0.90;;;3.90;99.90;;;;;;5050576;28;20040;-89
2024/01/07 00:06:26;;;;;;;1.00;1.00;;;4.00;99.90;;;;;;5034908;28;20052;-89
2024/01/07 00:08:52;;;;;;;1.00;1.00;;;4.20;99.90;;;;;;5047176;28;20044;-91
2024/01/07 00:11:18;;;;;;;0.90;0.90;;;4.00;99.90;;;;;;5034530;28;20044;-91
2024/01/07 00:13:44;;;;;;;0.90;0.90;;;4.00;99.90;;;;;;5052453;28;20103;-91
2024/01/07 00:16:10;;;;;;;1.00;1.00;;;4.10;99.90;;;;;;5036737;28;20066;-91
2024/01/07 00:18:36;;;;;;;1.00;1.00;;;4.10;99.90;;;;;;5032112;28;20555;-90
2024/01/07 00:21:02;;;;;;;1.00;1.00;;;4.00;99.90;;;;;;5044303;28;20044;-90
2024/01/07 00:23:27;;;;;;;0.90;0.90;;;4.10;99.90;;;;;;5036926;28;20044;-91
2024/01/07 00:25:54;;;;;;;0.90;0.90;;;4.00;99.90;;;;;;5035264;28;20067;-89
2024/01/07 00:28:20;;;;;;;0.90;0.90;;;4.00;99.90;;;;;;5037801;28;20091;-89
2024/01/07 00:30:46;;;;;;;0.90;0.90;;;3.90;99.90;;;;;;5033484;28;20044;-90
2024/01/07 00:33:11;;;;;;;0.90;0.90;;;4.10;99.90;;;;;;5032182;28;20041;-89
2024/01/07 00:35:37;;;;;;;0.90;0.90;;;4.10;99.90;;;;;;5033708;28;20076;-89
2024/01/07 00:38:03;;;;;;;0.90;0.90;;;4.10;99.90;;;;;;5055998;28;20044;-90
2024/01/07 00:40:29;;;;;;;1.00;1.00;;;4.00;99.90;;;;;;5052002;28;20440;-90
2024/01/07 00:42:54;;;;;;;0.90;0.90;;;4.10;99.90;;;;;;5032404;28;20052;-90
2024/01/07 00:45:21;;;;;;;0.90;0.90;;;3.90;99.90;;;;;;5040966;28;20071;-90
2024/01/07 00:47:47;;;;;;;0.90;0.90;;;4.10;99.90;;;;;;5036977;28;20040;-88
2024/01/07 00:50:13;;;;;;;0.93;0.93;;;4.00;99.90;;;;;;5025994;28;20132;-90
2024/01/07 00:52:38;;;;;;;0.90;0.90;;;4.10;99.90;;;;;;5036851;28;20056;-90
2024/01/07 00:55:06;;;;;;;0.90;0.90;;;4.10;99.90;;;;;;5029566;28;20044;-89
2024/01/07 00:57:32;;;;;;;0.98;0.98;;;4.10;99.90;;;;;;5032058;28;20040;-89
2024/01/07 00:59:59;;;;;;;0.93;0.93;;;3.90;99.90;;;;;;5031540;28;20106;-89
2024/01/07 01:02:25;;;;;;;0.90;0.90;;;3.90;99.90;;;;;;5047275;28;20060;-90
2024/01/07 01:04:51;;;;;;;0.93;0.93;;;4.00;99.90;;;;;;5053065;28;20387;-89
2024/01/07 01:07:17;;;;;;;0.90;0.90;;;3.90;99.90;;;;;;5029998;28;20478;-90
2024/01/07 01:09:42;;;;;;;0.95;0.95;;;4.10;99.90;;;;;;5052103;28;20597;-89
2024/01/07 01:12:08;;;;;;;0.90;0.90;;;4.00;99.90;;;;;;5034891;28;20052;-90
2024/01/07 01:14:34;;;;;;;0.90;0.90;;;4.00;99.90;;;;;;5033556;28;20043;-89
2024/01/07 01:16:59;;;;;;;0.90;0.90;;;4.00;99.90;;;;;;5034789;28;20127;-89
2024/01/07 01:19:25;;;;;;;1.00;1.00;;;4.00;99.90;;;;;;5034255;28;20478;-90
2024/01/07 01:21:51;;;;;;;1.00;1.00;;;4.00;99.90;;;;;;5031485;28;20048;-91
2024/01/07 01:24:17;;;;;;;0.93;0.93;;;3.90;99.90;;;;;;5026391;28;20044;-90
2024/01/07 01:26:42;;;;;;;0.90;0.90;;;3.90;99.90;;;;;;5042656;28;20048;-89
2024/01/07 01:29:08;;;;;;;0.90;0.90;;;4.00;99.90;;;;;;5026957;28;20044;-90
2024/01/07 01:31:34;;;;;;;0.90;0.90;;;3.90;99.90;;;;;;5028713;28;20102;-89
2024/01/07 01:33:59;;;;;;;0.90;0.90;;;3.80;99.90;;;;;;5044576;28;20050;-90
2024/01/07 01:36:26;;;;;;;1.00;1.00;;;3.90;99.90;;;;;;5028840;28;20056;-89
2024/01/07 01:38:52;;;;;;;1.00;1.00;;;3.90;99.90;;;;;;5048977;28;21214;-91
2024/01/07 01:41:17;;;;;;;0.90;0.90;;;3.80;99.90;;;;;;5034474;28;20043;-89
2024/01/07 01:43:43;;;;;;;0.90;0.90;;;3.90;99.90;;;;;;5049653;28;20505;-89
2024/01/07 01:46:09;;;;;;;0.90;0.90;;;3.80;99.90;;;;;;5047215;28;20071;-90
2024/01/07 01:48:36;;;;;;;1.00;1.00;;;3.90;99.90;;;;;;5045728;28;20051;-88
2024/01/07 01:51:03;;;;;;;0.90;0.90;;;3.90;99.90;;;;;;5052493;28;20175;-89
2024/01/07 01:53:29;;;;;;;0.90;0.90;;;3.90;99.90;;;;;;5029300;28;20522;-90
2024/01/07 01:56:00;;;;;;;1.00;1.00;;;3.90;99.90;;;;;;5052184;28;20045;-90
2024/01/07 01:58:28;;;;;;;0.93;0.93;;;3.90;99.90;;;;;;5039140;28;20107;-91
2024/01/07 02:00:54;;;;;;;1.00;1.00;;;3.80;99.90;;;;;;5031571;28;20048;-91
2024/01/07 02:03:19;;;;;;;1.95;1.85;;;3.90;99.90;;;;;;5053304;28;20045;-90
2024/01/07 02:05:47;;;;;;;0.90;0.90;;;3.90;99.90;;;;;;5048626;28;20128;-90
2024/01/07 02:08:13;;;;;;;0.90;0.90;;;3.90;99.90;;;;;;5036428;28;20093;-89
2024/01/07 02:10:39;;;;;;;1.00;1.00;;;3.80;99.90;;;;;;5048786;28;20044;-91
2024/01/07 02:13:05;;;;;;;0.90;0.90;;;3.90;99.90;;;;;;5033396;28;20696;-91
2024/01/07 02:15:33;;;;;;;1.00;1.00;;;3.90;99.90;;;;;;5029954;28;20044;-89
2024/01/07 02:17:59;;;;;;;1.00;1.00;;;3.80;99.90;;;;;;5034073;28;20037;-90
2024/01/07 02:20:24;;;;;;;1.00;1.00;;;3.90;99.90;;;;;;5050432;28;20382;-91
2024/01/07 02:22:51;;;;;;;1.00;1.00;;;3.90;99.90;;;;;;5032870;28;20054;-88
2024/01/07 02:25:17;;;;;;;1.00;1.00;;;3.80;99.90;;;;;;5032242;28;20398;-86
2024/01/07 02:27:42;;;;;;;0.90;0.90;;;3.90;94.80;;;;;;5049636;28;20128;-89
2024/01/07 02:30:08;;;;;;;1.00;1.00;;;3.80;42.00;;;;;;5050980;28;20051;-89
2024/01/07 02:32:35;;;;;;;1.08;1.08;;;3.90;3.00;;;;;;5030614;28;20052;-90
2024/01/07 02:35:02;;;;;;;1.00;1.00;;;3.90;1.00;;;;;;5032524;28;20051;-91
2024/01/07 02:37:27;;;;;;;0.90;0.90;;;3.90;1.00;;;;;;5034013;28;20072;-91
2024/01/07 02:39:53;;;;;;;1.00;1.00;;;3.90;1.00;;;;;;5049038;28;20190;-88
2024/01/07 02:42:19;;;;;;;0.90;0.90;;;3.90;1.00;;;;;;5036502;28;20375;-90
2024/01/07 02:44:44;;;;;;;1.00;1.00;;;4.00;79.20;;;;;;5034643;28;20044;-89
2024/01/07 02:47:10;;;;;;;0.90;0.90;;;3.90;1.00;;;;;;5037778;28;20059;-88
2024/01/07 02:49:36;;;;;;;0.90;0.90;;;3.80;1.00;;;;;;5034138;28;20052;-88
2024/01/07 02:52:02;;;;;;;1.00;1.00;;;3.80;1.00;;;;;;5039836;28;20036;-88
2024/01/07 02:54:27;;;;;;;0.93;0.93;;;3.80;1.00;;;;;;5055345;28;20389;-90
2024/01/07 02:56:53;;;;;;;1.00;1.00;;;3.90;1.00;;;;;;5034086;28;20036;-89
2024/01/07 02:59:19;;;;;;;1.00;1.00;;;3.80;1.00;;;;;;5051885;28;20043;-87
2024/01/07 03:01:45;;;;;;;1.00;1.00;;;3.80;1.00;;;;;;5031135;28;20060;-89
2024/01/07 03:04:12;;;;;;;0.98;0.98;;;3.80;1.00;;;;;;5036520;28;20052;-91
2024/01/07 03:06:38;;;;;;;1.00;1.00;;;3.80;1.00;;;;;;5036133;28;20071;-89
2024/01/07 03:09:04;;;;;;;1.00;1.00;;;3.80;1.00;;;;;;5052420;28;20441;-91
2024/01/07 03:11:30;;;;;;;1.00;1.00;;;3.80;1.00;;;;;;5035695;28;20050;-87
2024/01/07 03:13:56;;;;;;;1.00;1.00;;;3.70;1.00;;;;;;5038890;28;20048;-89
2024/01/07 03:16:23;;;;;;;1.00;1.00;;;3.80;1.00;;;;;;5033467;28;20032;-89
2024/01/07 03:18:49;;;;;;;1.00;1.00;;;3.80;1.00;;;;;;5039221;28;20036;-90
2024/01/07 03:21:19;;;;;;;0.98;0.98;;;3.80;1.00;;;;;;5052980;28;20040;-90
2024/01/07 03:23:46;;;;;;;1.00;1.00;;;3.80;1.00;;;;;;5036569;28;20127;-89
2024/01/07 03:26:13;;;;;;;1.00;1.00;;;3.80;1.00;;;;;;5034820;28;20127;-90
2024/01/07 03:28:38;;;;;;;0.90;0.90;;;3.80;39.90;;;;;;5035243;28;20080;-90
2024/01/07 03:31:15;;;;;;;1.00;1.00;;;3.80;1.00;;;;;;5035074;28;20200;-90
2024/01/07 03:33:42;;;;;;;1.00;1.00;;;3.80;26.70;;;;;;5049252;28;20037;-92
2024/01/07 03:36:13;;;;;;;1.00;1.00;;;3.80;49.30;;;;;;5035692;28;20382;-91
2024/01/07 03:38:40;;;;;;;1.00;1.00;;;3.80;22.30;;;;;;5037390;28;20483;-90
2024/01/07 03:41:06;;;;;;;0.95;0.95;;;3.80;97.80;;;;;;5036510;28;20033;-92
2024/01/07 03:43:32;;;;;;;1.00;1.00;;;3.80;62.00;;;;;;5035086;28;20047;-89
2024/01/07 03:45:58;;;;;;;0.90;0.90;;;3.80;8.40;;;;;;5035090;28;20040;-88
2024/01/07 03:48:25;;;;;;;1.00;1.00;;;3.80;1.00;;;;;;5047822;28;20040;-90
2024/01/07 03:50:50;;;;;;;1.00;1.00;;;3.70;1.00;;;;;;5035920;28;20517;-90
2024/01/07 03:53:17;;;;;;;1.00;1.00;;;3.70;1.00;;;;;;5038215;28;20052;-91
2024/01/07 03:55:42;;;;;;;1.10;1.10;;;3.70;1.00;;;;;;5036942;28;20043;-89
2024/01/07 03:58:08;;;;;;;1.00;1.00;;;3.70;1.00;;;;;;5052156;28;20056;-90
2024/01/07 04:00:34;;;;;;;1.00;1.00;;;3.70;1.00;;;;;;5033891;28;20080;-91
2024/01/07 04:03:01;;;;;;;1.08;1.08;;;3.60;1.00;;;;;;5034699;28;20044;-90
2024/01/07 04:05:29;;;;;;;1.00;1.00;;;3.70;1.00;;;;;;5033988;28;20114;-91
2024/01/07 04:07:54;;;;;;;1.00;1.00;;;3.70;1.00;;;;;;5055006;28;20083;-92
2024/01/07 04:10:20;;;;;;;1.00;1.00;;;3.70;1.00;;;;;;5039492;28;22381;-91
2024/01/07 04:12:46;;;;;;;1.00;1.00;;;3.70;1.00;;;;;;5034323;28;20128;-92
2024/01/07 04:15:12;;;;;;;1.00;1.00;;;3.70;30.40;;;;;;5033814;28;20127;-90
2024/01/07 04:17:38;;;;;;;1.00;1.00;;;3.60;1.00;;;;;;5048814;28;20493;-90
2024/01/07 04:20:05;;;;;;;1.00;1.00;;;3.60;1.00;;;;;;5049932;28;20178;-88
2024/01/07 04:22:31;;;;;;;1.00;1.00;;;3.60;1.00;;;;;;5032707;28;20040;-90
2024/01/07 04:24:56;;;;;;;1.00;1.00;;;3.60;1.00;;;;;;5033158;28;20055;-90
2024/01/07 04:27:25;;;;;;;1.05;1.05;;;3.60;1.00;;;;;;5067431;28;20041;-90
2024/01/07 04:29:51;;;;;;;1.05;1.05;;;3.50;1.00;;;;;;5037128;28;20039;-91
2024/01/07 04:32:17;;;;;;;1.00;1.00;;;3.60;1.00;;;;;;5051994;28;20397;-91
2024/01/07 04:34:43;;;;;;;1.00;1.00;;;3.50;1.00;;;;;;5051725;28;20047;-91
2024/01/07 04:37:08;;;;;;;1.00;1.00;;;3.60;1.00;;;;;;5034762;28;20090;-89
2024/01/07 04:39:34;;;;;;;1.10;1.10;;;3.50;1.00;;;;;;5048869;28;20061;-89
2024/01/07 04:42:02;;;;;;;1.10;1.10;;;3.50;1.00;;;;;;5039903;28;20563;-90
2024/01/07 04:44:28;;;;;;;1.10;1.10;;;3.50;1.00;;;;;;5050103;28;20101;-89
2024/01/07 04:46:54;;;;;;;1.00;1.00;;;3.50;99.90;;;;;;5051809;28;20678;-91
2024/01/07 04:49:19;;;;;;;1.00;1.00;;;3.50;99.90;;;;;;5035177;28;20068;-90
2024/01/07 04:51:45;;;;;;;1.38;1.27;;;3.50;99.90;;;;;;5053120;28;20048;-91
2024/01/07 04:54:11;;;;;;;1.10;1.10;;;3.50;99.90;;;;;;5053005;28;20520;-90
2024/01/07 04:56:36;;;;;;;1.00;1.00;;;3.50;99.90;;;;;;5037309;28;20552;-92
2024/01/07 04:59:02;;;;;;;1.00;1.00;;;3.40;99.90;;;;;;5034144;28;20501;-90
2024/01/07 05:01:28;;;;;;;1.00;1.00;;;3.40;99.90;;;;;;5049599;28;20043;-89
2024/01/07 05:03:54;;;;;;;1.02;1.02;;;3.50;99.90;;;;;;5035208;28;20044;-91
2024/01/07 05:06:19;;;;;;;1.00;1.00;;;3.40;99.90;;;;;;5038800;28;20075;-91
2024/01/07 05:08:45;;;;;;;1.00;1.00;;;3.40;99.90;;;;;;5039152;28;20063;-92
2024/01/07 05:11:11;;;;;;;1.08;1.08;;;3.30;94.90;;;;;;5050824;28;20068;-91
2024/01/07 05:13:37;;;;;;;1.10;1.10;;;3.40;25.20;;;;;;5033550;28;20048;-90
2024/01/07 05:16:03;;;;;;;1.10;1.10;;;3.30;1.00;;;;;;5052689;28;20044;-91
2024/01/07 05:18:29;;;;;;;1.00;1.00;;;3.30;1.00;;;;;;5034191;28;20039;-92
2024/01/07 05:20:54;;;;;;;1.00;1.00;;;3.40;1.00;;;;;;5033733;28;20047;-91
2024/01/07 05:23:20;;;;;;;1.10;1.10;;;3.30;1.00;;;;;;5036240;28;20094;-93
2024/01/07 05:25:47;;;;;;;1.00;1.00;;;3.40;57.20;;;;;;5035974;28;20044;-91
2024/01/07 05:28:13;;;;;;;1.10;1.10;;;3.30;86.70;;;;;;5036743;28;20040;-91
2024/01/07 05:30:39;;;;;;;1.05;1.05;;;3.30;99.90;;;;;;5034720;28;20079;-92
2024/01/07 05:33:05;;;;;;;1.10;1.10;;;3.30;99.90;;;;;;5033994;28;20131;-90
2024/01/07 05:35:31;;;;;;;1.40;1.30;;;3.30;99.90;;;;;;5035255;28;20135;-90
2024/01/07 05:37:57;;;;;;;1.10;1.10;;;3.30;79.00;;;;;;5036236;28;20048;-90
2024/01/07 05:40:23;;;;;;;1.10;1.10;;;3.30;1.00;;;;;;5034600;28;20041;-91
2024/01/07 05:42:48;;;;;;;1.05;1.05;;;3.40;1.00;;;;;;5049205;28;20040;-89
2024/01/07 05:45:14;;;;;;;1.10;1.10;;;3.30;1.00;;;;;;5053325;28;20127;-92
2024/01/07 05:47:43;;;;;;;1.10;1.10;;;3.30;1.00;;;;;;5052383;28;20098;-92
2024/01/07 05:50:10;;;;;;;1.00;1.00;;;3.30;1.00;;;;;;5032982;28;20401;-88
2024/01/07 05:52:36;;;;;;;1.10;1.10;;;3.30;1.00;;;;;;5041976;28;20052;-92
2024/01/07 05:55:02;;;;;;;1.00;1.00;;;3.30;1.00;;;;;;5036891;28;20567;-91
2024/01/07 05:57:28;;;;;;;1.10;1.10;;;3.30;1.00;;;;;;5049419;28;20076;-91
2024/01/07 05:59:54;;;;;;;1.08;1.08;;;3.30;1.00;;;;;;5033890;28;20052;-91
2024/01/07 06:02:22;;;;;;;1.10;1.10;;;3.40;1.00;;;;;;5034053;28;20103;-92
2024/01/07 06:04:48;;;;;;;1.00;1.00;;;3.30;1.00;;;;;;5048781;28;20052;-91
2024/01/07 06:07:14;;;;;;;1.10;1.10;;;3.40;1.00;;;;;;5053873;28;20040;-91
2024/01/07 06:09:39;;;;;;;1.00;1.00;;;3.40;1.00;;;;;;5049943;28;20079;-91
2024/01/07 06:12:05;;;;;;;1.00;1.00;;;3.30;1.00;;;;;;5038976;28;20047;-92
2024/01/07 06:14:31;;;;;;;1.00;1.00;;;3.40;1.00;;;;;;5034165;28;20045;-90
2024/01/07 06:16:57;;;;;;;1.08;1.08;;;3.30;1.00;;;;;;5036791;28;20055;-91
2024/01/07 06:19:23;;;;;;;1.73;1.63;;;3.30;99.90;;;;;;5036842;28;20040;-91
2024/01/07 06:21:49;;;;;;;1.02;1.02;;;3.30;99.90;;;;;;5049633;28;20501;-90
2024/01/07 06:24:14;;;;;;;1.00;1.00;;;3.30;99.90;;;;;;5036607;28;20036;-90
2024/01/07 06:26:40;;;;;;;1.10;1.10;;;3.30;99.90;;;;;;5055590;28;20044;-90
2024/01/07 06:29:06;;;;;;;1.02;1.02;;;3.30;99.90;;;;;;5053359;28;20106;-91
2024/01/07 06:31:32;;;;;;;1.00;1.00;;;3.30;84.40;;;;;;5037358;28;20048;-88
2024/01/07 06:33:57;;;;;;;1.10;1.10;;;3.30;99.90;;;;;;5036178;28;20044;-89
2024/01/07 06:36:25;;;;;;;1.10;1.10;;;3.30;99.90;;;;;;5055403;28;20123;-92
2024/01/07 06:38:50;;;;;;;1.00;1.00;;;3.30;1.00;;;;;;5034415;28;20079;-89
2024/01/07 06:41:16;;;;;;;1.00;1.00;;;3.30;99.90;;;;;;5036419;28;20083;-90
2024/01/07 06:43:42;;;;;;;1.10;1.10;;;3.30;99.90;;;;;;5043111;28;20098;-87
2024/01/07 06:46:08;;;;;;;1.17;1.17;;;3.30;1.00;;;;;;5053897;28;20098;-90
2024/01/07 06:48:33;;;;;;;1.13;1.13;;;3.30;1.00;;;;;;5036472;28;20498;-91
2024/01/07 06:50:59;;;;;;;1.10;1.10;;;3.30;1.00;;;;;;5035623;28;20059;-91
2024/01/07 06:53:25;;;;;;;1.10;1.10;;;3.30;1.00;;;;;;5033661;28;20087;-88
2024/01/07 06:55:51;;;;;;;1.05;1.05;;;3.30;1.00;;;;;;5053453;28;20040;-88
2024/01/07 06:58:17;;;;;;;1.10;1.10;;;3.30;1.00;;;;;;5037540;28;20393;-89
2024/01/07 07:00:42;;;;;;;1.35;1.20;;;3.20;1.00;;;;;;5039215;28;20505;-90
2024/01/07 07:03:08;;;;;;;1.10;1.10;;;3.30;1.00;;;;;;5053373;28;20499;-88
2024/01/07 07:05:34;;;;;;;1.10;1.10;;;3.30;1.00;;;;;;5034885;28;20071;-88
2024/01/07 07:08:01;;;;;;;1.10;1.10;;;3.30;99.90;;;;;;5050260;28;20501;-88
2024/01/07 07:10:26;;;;;;;1.10;1.10;;;3.30;99.90;;;;;;5035093;28;20070;-89
2024/01/07 07:12:53;;;;;;;1.00;1.00;;;3.30;1.00;;;;;;5054008;28;20067;-90
2024/01/07 07:15:19;;;;;;;1.10;1.10;;;3.40;1.00;;;;;;5036722;28;20055;-88
2024/01/07 07:17:44;;;;;;;1.02;1.02;;;3.30;1.00;;;;;;5035637;28;20033;-91
2024/01/07 07:20:11;;;;;;;1.08;1.08;;;3.30;1.00;;;;;;5041535;28;20091;-91
2024/01/07 07:22:37;;;;;;;1.00;1.00;;;3.40;1.00;;;;;;5036226;28;20119;-89
2024/01/07 07:25:03;;;;;;;1.10;1.10;;;3.30;1.00;;;;;;5036562;28;20131;-88
2024/01/07 07:27:29;;;;;;;1.10;1.10;;;3.30;1.00;;;;;;5051839;28;20548;-87
2024/01/07 07:29:55;;;;;;;1.00;1.00;;;3.40;99.90;;;;;;5053459;28;20393;-88
2024/01/07 07:32:21;;;;;;;1.23;1.20;;;3.30;99.90;;;;;;5052616;28;20040;-89
2024/01/07 07:34:47;;;;;;;1.10;1.10;;;3.40;99.90;;;;;;5037721;28;20044;-88
2024/01/07 07:37:13;;;;;;;1.02;1.02;;;3.30;99.90;;;;;;5035190;28;20044;-91
2024/01/07 07:39:39;;;;;;;1.02;1.02;;;3.40;99.90;;;;;;5033186;28;20102;-87
2024/01/07 07:42:04;;;;;;;1.02;1.02;;;3.40;99.90;;;;;;5033287;28;20049;-88
2024/01/07 07:44:30;;;;;;;1.05;1.05;;;3.40;99.90;;;;;;5037006;28;20064;-87
2024/01/07 07:46:56;;;;;;;1.10;1.10;;;3.30;99.90;;;;;;5032781;28;20041;-89
2024/01/07 07:49:22;;;;;;;1.00;1.00;;;3.40;99.90;;;;;;5033383;28;20052;-86
2024/01/07 07:51:47;;;;;;;1.10;1.10;;;3.30;99.90;;;;;;5048402;28;20084;-87
2024/01/07 07:54:13;;;;;;;1.10;1.10;;;3.30;99.90;;;;;;5036971;28;20044;-89
2024/01/07 07:56:39;;;;;;;1.00;1.00;;;3.30;99.90;;;;;;5050606;28;20631;-87
2024/01/07 07:59:05;;;;;;;1.08;1.08;;;3.20;99.90;;;;;;5048457;28;20106;-86
2024/01/07 08:01:30;;;;;;;1.10;1.10;;;3.30;99.90;;;;;;5031368;28;20040;-88
2024/01/07 08:03:56;;;;;;;1.00;1.00;;;3.20;99.90;;;;;;5050184;28;20055;-88
2024/01/07 08:06:22;;;;;;;1.02;1.02;;;3.10;99.90;;;;;;5049892;28;20042;-89
2024/01/07 08:08:48;;;;;;;1.10;1.10;;;3.20;99.90;;;;;;5036642;28;20041;-88
2024/01/07 08:11:13;;;;;;;1.02;1.02;;;3.10;99.90;;;;;;5047878;28;20043;-87
2024/01/07 08:13:41;;;;;;;1.10;1.10;;;3.10;1.00;;;;;;5049673;28;20075;-89
2024/01/07 08:16:07;;;;;;;1.00;1.00;;;3.10;99.90;;;;;;5030414;28;20440;-87
2024/01/07 08:18:32;;;;;;;1.10;1.10;;;3.20;1.00;;;;;;5049655;28;20109;-87
2024/01/07 08:20:58;;;;;;;1.10;1.10;;;3.30;99.90;;;;;;5048787;28;20045;-87
2024/01/07 08:23:24;;;;;;;1.10;1.10;;;3.30;99.90;;;;;;5046412;28;20398;-88
2024/01/07 08:25:51;;;;;;;1.00;1.00;;;3.20;99.90;;;;;;5032709;28;20033;-87
2024/01/07 08:28:17;;;;;;;1.10;1.10;;;3.20;99.90;;;;;;5029153;28;20048;-86
2024/01/07 08:30:44;;;;;;;1.00;1.00;;;3.20;99.90;;;;;;5045409;28;20056;-87
2024/01/07 08:33:10;;;;;;;1.05;1.05;;;3.20;99.90;;;;;;5029946;28;20495;-87
2024/01/07 08:35:36;;;;;;;1.10;1.10;;;3.20;99.90;;;;;;5048480;28;20399;-86
2024/01/07 08:38:03;;;;;;;1.10;1.10;;;3.10;99.90;;;;;;5045394;28;20037;-85
2024/01/07 08:40:29;;;;;;;1.10;1.10;;;3.20;99.90;;;;;;5047430;28;20056;-86
2024/01/07 08:42:55;;;;;;;1.00;1.00;;;3.20;99.90;;;;;;5046106;28;20054;-86
2024/01/07 08:45:21;;;;;;;1.10;1.10;;;3.20;99.90;;;;;;5052286;28;20444;-86
2024/01/07 08:47:47;;;;;;;1.10;1.10;;;3.20;99.90;;;;;;5038864;28;20045;-87
2024/01/07 08:50:12;;;;;;;1.10;1.10;;;3.20;99.90;;;;;;5024854;28;20071;-86
2024/01/07 08:52:41;;;;;;;1.10;1.10;;;3.10;99.90;;;;;;5045209;28;20052;-88
2024/01/07 08:55:09;;;;;;;1.10;1.10;;;3.30;99.90;;;;;;5046905;28;20076;-89
2024/01/07 08:57:37;;;;;;;1.00;1.00;;;3.40;99.90;;;;;;5044320;28;20509;-84
2024/01/07 09:00:04;;;;;;;1.00;1.00;;;3.30;99.90;;;;;;5043352;28;20041;-87
2024/01/07 09:02:30;;;;;;;1.00;1.00;;;3.50;99.90;;;;;;5026541;28;20097;-87
2024/01/07 09:04:57;;;;;;;1.00;1.00;;;3.70;99.90;;;;;;5042789;28;20056;-87
2024/01/07 09:07:23;;;;;;;1.00;1.00;;;3.80;99.90;;;;;;5064096;28;20122;-86
2024/01/07 09:09:49;;;;;;;1.00;1.00;;;3.70;99.90;;;;;;5048713;28;20131;-88
2024/01/07 09:12:14;;;;;;;1.00;1.00;;;3.70;99.90;;;;;;5050105;28;20498;-86
2024/01/07 09:14:40;;;;;;;1.00;1.00;;;3.70;99.90;;;;;;5033431;28;20745;-86
2024/01/07 09:17:06;;;;;;;1.00;1.00;;;3.70;99.90;;;;;;5046636;28;20047;-87
2024/01/07 09:19:32;;;;;;;0.98;0.98;;;3.60;99.90;;;;;;5047395;28;20054;-87
2024/01/07 09:21:57;;;;;;;1.00;1.00;;;3.60;99.90;;;;;;5046533;28;20110;-87
2024/01/07 09:24:23;;;;;;;1.00;1.00;;;3.60;99.90;;;;;;5048626;28;20036;-85
2024/01/07 09:26:49;;;;;;;1.00;1.00;;;3.60;99.90;;;;;;5027706;28;20052;-85
2024/01/07 09:29:14;;;;;;;1.00;1.00;;;3.60;99.90;;;;;;5029090;28;20044;-87
2024/01/07 09:31:40;;;;;;;0.98;0.98;;;3.60;99.90;;;;;;5048590;28;20413;-87
2024/01/07 09:34:09;;;;;;;1.00;1.00;;;3.70;99.90;;;;;;5026373;28;20048;-85
2024/01/07 09:36:35;;;;;;;1.00;1.00;;;3.70;99.90;;;;;;5046243;28;20052;-85
2024/01/07 09:39:01;;;;;;;6.07;5.75;;;3.60;99.90;;;;;;5028941;28;20052;-88
2024/01/07 09:41:27;;;;;;;1.00;1.00;;;3.70;99.90;;;;;;5046148;28;20048;-86
2024/01/07 09:43:53;;;;;;;1.00;1.00;;;3.70;99.90;;;;;;5049617;28;20050;-88
2024/01/07 09:46:19;;;;;;;1.00;1.00;;;3.70;99.90;;;;;;5033311;28;20048;-88
2024/01/07 09:48:45;;;;;;;1.00;1.00;;;3.90;99.90;;;;;;5028120;28;20041;-84
2024/01/07 09:51:11;;;;;;;1.00;1.00;;;3.80;99.90;;;;;;5048267;28;20033;-85
2024/01/07 09:53:42;;;;;;;1.00;1.00;;;4.00;99.90;;;;;;5032694;28;20117;-86
2024/01/07 09:56:41;;;;;;;1.00;1.00;;;4.00;99.90;;;;;;5049560;28;20517;-86
2024/01/07 09:59:08;;;;;;;1.00;1.00;;;4.10;99.90;;;;;;5016967;28;20052;-87
2024/01/07 10:01:37;;;;;;;1.00;1.00;;;4.20;99.90;;;;;;5034128;28;20387;-87
2024/01/07 10:04:03;;;;;;;1.05;1.05;;;4.30;99.90;;;;;;5034425;28;20052;-87
2024/01/07 10:06:29;;;;;;;1.10;1.10;;;4.30;99.90;;;;;;5055685;28;20075;-87
2024/01/07 10:08:55;;;;;;;1.10;1.10;;;4.20;99.90;;;;;;5067449;28;20505;-87
2024/01/07 10:11:22;;;;;;;1.17;1.17;;;4.30;99.90;;;;;;5026569;28;20137;-88
2024/01/07 10:13:48;;;;;;;1.10;1.10;;;4.30;99.90;;;;;;5045064;28;20049;-88
2024/01/07 10:16:14;;;;;;;8.80;4.10;;;4.40;99.90;;;;;;5047199;28;20052;-89
2024/01/07 10:18:40;;;;;;;1.10;1.10;;;4.50;99.90;;;;;;5051654;28;20045;-86
2024/01/07 10:21:07;;;;;;;1.20;1.20;;;4.40;99.90;;;;;;5034159;28;20395;-86
2024/01/07 10:23:32;;;;;;;1.20;1.20;;;4.50;99.90;;;;;;5050360;28;20599;-87
2024/01/07 10:25:58;;;;;;;1.30;1.30;;;4.70;99.90;;;;;;5049839;28;20071;-86
2024/01/07 10:28:24;;;;;;;1.20;1.20;;;4.40;99.90;;;;;;5070718;28;20521;-89
2024/01/07 10:30:50;;;;;;;1.30;1.30;;;4.50;99.90;;;;;;5049976;28;20084;-87
2024/01/07 10:33:19;;;;;;;1.30;1.30;;;4.40;99.90;;;;;;5051939;28;20044;-88
2024/01/07 10:35:51;;;;;;;1.20;1.20;;;4.40;99.90;;;;;;5052363;28;20052;-89
2024/01/07 10:38:17;;;;;;;1.30;1.30;;;4.50;99.90;;;;;;5047078;28;20078;-88
2024/01/07 10:40:45;;;;;;;1.23;1.23;;;4.40;99.90;;;;;;5048362;28;20071;-87
2024/01/07 10:43:11;;;;;;;1.23;1.23;;;4.40;99.90;;;;;;5050047;28;20190;-88
2024/01/07 10:45:36;;;;;;;1.20;1.20;;;4.40;99.90;;;;;;5065496;28;20151;-87
2024/01/07 10:48:07;;;;;;;1.30;1.30;;;4.30;99.90;;;;;;5047648;28;20036;-86
2024/01/07 10:50:34;;;;;;;1.20;1.20;;;4.30;99.90;;;;;;5058390;28;20051;-88
2024/01/07 10:53:07;;;;;;;1.25;1.25;;;4.30;99.90;;;;;;5069533;28;20055;-88
2024/01/07 10:55:37;;;;;;;1.23;1.20;;;4.30;99.90;;;;;;5032262;28;20048;-87
2024/01/07 10:58:04;;;;;;;1.20;1.20;;;4.30;99.90;;;;;;5065204;28;20053;-89
2024/01/07 11:00:31;;;;;;;1.20;1.20;;;4.40;99.90;;;;;;5035492;28;20487;-89
2024/01/07 11:03:18;;;;;;;1.20;1.20;;;4.40;99.90;;;;;;5025142;28;20283;-86
2024/01/07 11:05:54;;;;;;;1.20;1.20;;;4.40;99.90;;;;;;5031366;28;20083;-88
2024/01/07 11:08:33;;;;;;;1.10;1.10;;;4.30;99.90;;;;;;5046487;28;20079;-86
2024/01/07 11:11:06;;;;;;;1.20;1.20;;;4.40;99.90;;;;;;5048097;28;20504;-86
2024/01/07 11:13:38;;;;;;;1.25;1.25;;;4.50;99.90;;;;;;5032159;28;20048;-89
2024/01/07 11:16:14;;;;;;;1.20;1.20;;;4.40;99.90;;;;;;5048864;28;20044;-90
2024/01/07 11:18:51;;;;;;;1.20;1.20;;;4.50;99.90;;;;;;5063403;28;20123;-88
2024/01/07 11:21:26;;;;;;;1.20;1.20;;;4.40;99.90;;;;;;5049794;28;20044;-89
2024/01/07 11:23:53;;;;;;;1.20;1.20;;;4.50;99.90;;;;;;5051346;28;20083;-90
2024/01/07 11:26:20;;;;;;;1.13;1.13;;;4.40;99.90;;;;;;5052208;28;20043;-87
2024/01/07 11:28:49;;;;;;;1.25;1.25;;;4.50;99.90;;;;;;5050045;28;20045;-86
2024/01/07 11:31:16;;;;;;;1.25;1.25;;;4.40;99.90;;;;;;5033921;28;20073;-90
2024/01/07 11:33:44;;;;;;;1.20;1.20;;;4.40;99.90;;;;;;5051876;28;20040;-88
2024/01/07 11:36:12;;;;;;;1.23;1.23;;;4.50;99.90;;;;;;5062595;28;20048;-89
2024/01/07 11:38:41;;;;;;;1.20;1.20;;;4.40;99.90;;;;;;5030473;28;20584;-86
2024/01/07 11:41:09;;;;;;;1.20;1.20;;;4.50;99.90;;;;;;5052763;28;20037;-87
2024/01/07 11:43:34;;;;;;;1.20;1.20;;;4.40;99.90;;;;;;5053094;28;20047;-88
2024/01/07 11:46:00;;;;;;;1.30;1.30;;;4.40;99.90;;;;;;5050312;28;20044;-88
2024/01/07 11:48:27;;;;;;;1.20;1.20;;;4.50;99.90;;;;;;5048946;28;20056;-87
2024/01/07 11:50:53;;;;;;;1.20;1.20;;;4.50;99.90;;;;;;5044282;28;20150;-87
2024/01/07 11:53:19;;;;;;;1.20;1.20;;;4.40;99.90;;;;;;5032519;28;20040;-88
2024/01/07 11:55:45;;;;;;;1.20;1.20;;;4.40;99.90;;;;;;5050779;28;20051;-89
2024/01/07 11:58:11;;;;;;;1.20;1.20;;;4.40;99.90;;;;;;5054020;28;20032;-88
2024/01/07 12:00:37;;;;;;;1.20;1.20;;;4.40;99.90;;;;;;5047694;28;20413;-88
2024/01/07 12:03:03;;;;;;;1.20;1.20;;;4.50;99.90;;;;;;5064196;28;20052;-88
2024/01/07 12:05:30;;;;;;;1.20;1.20;;;4.50;99.90;;;;;;5049134;28;20039;-88
2024/01/07 12:07:56;;;;;;;1.30;1.30;;;4.60;99.90;;;;;;5034919;28;20502;-88
2024/01/07 12:10:23;;;;;;;1.20;1.20;;;4.50;99.90;;;;;;5029539;28;20135;-88
2024/01/07 12:12:52;;;;;;;1.25;1.25;;;4.50;99.90;;;;;;5043961;28;20045;-87
2024/01/07 12:15:19;;;;;;;1.20;1.20;;;4.60;99.90;;;;;;5054363;28;20079;-88
2024/01/07 12:18:00;;;;;;;1.10;1.10;;;4.70;99.90;;;;;;5047324;28;20098;-89
2024/01/07 12:20:27;;;;;;;1.20;1.20;;;4.90;99.90;;;;;;5047200;28;20055;-88
2024/01/07 12:22:57;;;;;;;1.20;1.20;;;4.80;99.90;;;;;;5037087;28;20048;-89
2024/01/07 12:25:25;;;;;;;1.25;1.25;;;5.00;99.90;;;;;;5035092;28;20048;-88
2024/01/07 12:27:54;;;;;;;1.23;1.23;;;5.10;99.90;;;;;;5035735;28;20078;-88
2024/01/07 12:30:20;;;;;;;1.25;1.25;;;5.10;99.90;;;;;;5042332;28;20148;-88
2024/01/07 12:32:46;;;;;;;1.30;1.30;;;5.10;99.90;;;;;;5035795;28;20048;-87
2024/01/07 12:35:12;;;;;;;1.55;1.45;;;5.40;99.90;;;;;;5033246;28;20509;-87
2024/01/07 12:37:38;;;;;;;1.55;1.45;;;5.50;99.90;;;;;;5047061;28;20083;-88
2024/01/07 12:40:06;;;;;;;1.45;1.38;;;5.10;99.90;;;;;;5045989;28;20040;-88
2024/01/07 12:42:32;;;;;;;1.52;1.42;;;5.20;99.90;;;;;;5031758;28;20068;-88
2024/01/07 12:44:57;;;;;;;1.58;1.48;;;5.10;99.90;;;;;;5026958;28;20079;-86
2024/01/07 12:47:23;;;;;;;1.63;1.52;;;4.90;99.90;;;;;;5048609;28;20059;-87
2024/01/07 12:49:49;;;;;;;1.60;1.50;;;5.10;99.90;;;;;;5042886;28;20095;-87
2024/01/07 12:52:14;;;;;;;1.70;1.60;;;5.30;99.90;;;;;;5027933;28;20924;-87
2024/01/07 12:54:40;;;;;;;1.58;1.48;;;5.40;99.90;;;;;;5030414;28;20073;-87
2024/01/07 12:57:06;;;;;;;1.50;1.40;;;5.50;99.90;;;;;;5030311;28;20110;-89